Time;durP1;ratioP1;P1;durP2;ratioP2;P2;SDS_P1;SDS_P2;PMS_P1;PMS_P2;Temp;Humidity;BMP_temperature;BMP_pressure;BME280_temperature;BME280_humidity;BME280_pressure;Samples;Min_cycle;Max_cycle;Signal;HPM_P1;HPM_P2
2022/04/23 00:02:09;;;;;;;17.08;12.32;;;;;;;;;;5103972;28;20102;-61
2022/04/23 00:04:35;;;;;;;16.67;11.90;;;;;;;;;;5085906;28;20054;-61
2022/04/23 00:07:01;;;;;;;16.90;12.93;;;;;;;;;;5110128;28;20400;-61
2022/04/23 00:09:27;;;;;;;18.50;11.77;;;;;;;;;;5108188;28;20120;-61
2022/04/23 00:11:55;;;;;;;18.13;11.25;;;;;;;;;;5105628;28;20040;-62
2022/04/23 00:14:21;;;;;;;18.70;12.68;;;;;;;;;;5094667;28;20513;-62
2022/04/23 00:16:50;;;;;;;17.90;13.02;;;;;;;;;;5101095;28;20042;-62
2022/04/23 00:19:16;;;;;;;16.50;12.57;;;;;;;;;;5095390;28;20447;-62
2022/04/23 00:21:42;;;;;;;17.52;12.52;;;;;;;;;;5097565;28;20089;-62
2022/04/23 00:24:08;;;;;;;19.05;12.85;;;;;;;;;;5101800;28;20032;-62
2022/04/23 00:26:34;;;;;;;17.45;12.63;;;;;;;;;;5107945;28;20028;-62
2022/04/23 00:29:00;;;;;;;21.15;13.35;;;;;;;;;;5101779;28;20042;-62
2022/04/23 00:31:26;;;;;;;19.45;13.07;;;;;;;;;;5102731;28;20412;-62
2022/04/23 00:33:52;;;;;;;18.23;12.60;;;;;;;;;;5105391;28;20509;-62
2022/04/23 00:36:19;;;;;;;18.63;13.45;;;;;;;;;;5098083;28;20047;-62
2022/04/23 00:38:49;;;;;;;18.98;13.43;;;;;;;;;;5108186;28;20054;-62
2022/04/23 00:44:03;;;;;;;17.95;14.02;;;;;;;;;;5082281;28;20376;-64
2022/04/23 00:46:29;;;;;;;18.52;13.98;;;;;;;;;;5105736;28;20039;-64
2022/04/23 00:48:55;;;;;;;19.27;13.20;;;;;;;;;;5104326;28;20040;-64
2022/04/23 00:51:21;;;;;;;21.15;14.02;;;;;;;;;;5100077;28;20048;-64
2022/04/23 00:53:48;;;;;;;19.10;13.60;;;;;;;;;;5094372;28;20417;-64
2022/04/23 00:56:15;;;;;;;19.88;14.10;;;;;;;;;;5090588;28;20497;-64
2022/04/23 00:58:41;;;;;;;17.58;13.07;;;;;;;;;;5087025;28;20498;-64
2022/04/23 01:01:07;;;;;;;18.65;13.80;;;;;;;;;;5083431;28;20113;-64
2022/04/23 01:03:33;;;;;;;19.83;14.10;;;;;;;;;;5090441;28;20040;-64
2022/04/23 01:05:59;;;;;;;19.02;14.00;;;;;;;;;;5080905;28;20040;-64
2022/04/23 01:08:28;;;;;;;22.23;14.98;;;;;;;;;;5097502;28;20041;-64
2022/04/23 01:10:53;;;;;;;21.05;14.20;;;;;;;;;;5085883;28;20448;-64
2022/04/23 01:13:20;;;;;;;20.08;14.20;;;;;;;;;;5090158;28;20047;-64
2022/04/23 01:16:05;;;;;;;20.85;14.48;;;;;;;;;;5095368;28;20044;-64
2022/04/23 01:18:31;;;;;;;18.98;13.90;;;;;;;;;;5092924;28;20070;-64
2022/04/23 01:20:59;;;;;;;20.90;14.27;;;;;;;;;;5092398;28;20085;-64
2022/04/23 01:23:25;;;;;;;18.50;13.98;;;;;;;;;;5086658;28;20101;-64
2022/04/23 01:25:53;;;;;;;21.52;15.07;;;;;;;;;;5091653;28;20039;-64
2022/04/23 01:28:21;;;;;;;18.08;13.90;;;;;;;;;;5087850;28;20073;-64
2022/04/23 01:30:48;;;;;;;19.67;14.02;;;;;;;;;;5081028;28;20098;-64
2022/04/23 01:33:14;;;;;;;19.80;14.50;;;;;;;;;;5082974;28;20055;-64
2022/04/23 01:35:40;;;;;;;19.13;13.48;;;;;;;;;;5086966;28;20405;-64
2022/04/23 01:38:06;;;;;;;19.67;13.50;;;;;;;;;;5085610;28;20032;-64
2022/04/23 01:40:32;;;;;;;19.60;14.15;;;;;;;;;;5100918;28;20627;-64
2022/04/23 01:42:58;;;;;;;19.23;14.45;;;;;;;;;;5086505;28;20117;-64
2022/04/23 01:45:25;;;;;;;21.33;14.45;;;;;;;;;;5080309;28;20075;-64
2022/04/23 01:47:51;;;;;;;20.05;14.45;;;;;;;;;;5092070;28;20120;-64
2022/04/23 01:50:17;;;;;;;18.80;14.02;;;;;;;;;;5085162;28;20581;-64
2022/04/23 01:52:43;;;;;;;18.90;13.82;;;;;;;;;;5093061;28;20214;-64
2022/04/23 01:55:09;;;;;;;17.23;13.43;;;;;;;;;;5085456;28;20119;-64
2022/04/23 01:57:35;;;;;;;19.17;13.43;;;;;;;;;;5090015;28;20047;-64
2022/04/23 02:00:01;;;;;;;19.15;13.38;;;;;;;;;;5058905;28;20182;-64
2022/04/23 02:02:27;;;;;;;20.17;14.35;;;;;;;;;;5080187;28;20119;-64
2022/04/23 02:04:53;;;;;;;17.55;13.32;;;;;;;;;;5087188;28;20036;-64
2022/04/23 02:07:19;;;;;;;19.42;13.77;;;;;;;;;;5075904;28;20058;-64
2022/04/23 02:09:45;;;;;;;19.95;13.55;;;;;;;;;;5088791;28;20047;-64
2022/04/23 02:12:11;;;;;;;17.15;12.90;;;;;;;;;;5091695;28;20039;-64
2022/04/23 02:14:37;;;;;;;17.63;12.65;;;;;;;;;;5091888;28;20040;-64
2022/04/23 02:17:03;;;;;;;17.65;12.98;;;;;;;;;;5095581;28;20043;-64
2022/04/23 02:19:29;;;;;;;18.65;13.82;;;;;;;;;;5084352;28;20067;-64
2022/04/23 02:21:55;;;;;;;18.42;12.73;;;;;;;;;;5097264;28;20074;-64
2022/04/23 02:24:22;;;;;;;18.80;13.00;;;;;;;;;;5085778;28;20064;-64
2022/04/23 02:26:48;;;;;;;19.17;12.90;;;;;;;;;;5082607;28;20107;-64
2022/04/23 02:29:14;;;;;;;17.55;13.10;;;;;;;;;;5099833;28;20044;-64
2022/04/23 02:31:40;;;;;;;17.40;13.40;;;;;;;;;;5091610;28;20519;-64
2022/04/23 02:34:05;;;;;;;17.90;13.70;;;;;;;;;;5087705;28;20062;-64
2022/04/23 02:36:31;;;;;;;16.85;13.30;;;;;;;;;;5084035;28;20118;-64
2022/04/23 02:38:59;;;;;;;20.95;13.57;;;;;;;;;;5086262;28;20028;-64
2022/04/23 02:41:25;;;;;;;16.70;12.93;;;;;;;;;;5093117;28;20036;-64
2022/04/23 02:43:51;;;;;;;17.00;13.05;;;;;;;;;;5090007;28;20209;-64
2022/04/23 02:46:17;;;;;;;16.88;13.07;;;;;;;;;;5090463;28;20045;-64
2022/04/23 02:48:44;;;;;;;18.52;11.98;;;;;;;;;;5090277;28;20040;-64
2022/04/23 02:51:15;;;;;;;18.27;13.43;;;;;;;;;;5091543;28;20047;-64
2022/04/23 02:53:41;;;;;;;15.80;12.00;;;;;;;;;;5093299;28;20509;-64
2022/04/23 02:56:13;;;;;;;16.75;12.20;;;;;;;;;;5092951;28;20486;-64
2022/04/23 02:58:40;;;;;;;19.50;12.45;;;;;;;;;;5102117;28;20042;-64
2022/04/23 03:01:09;;;;;;;19.50;12.48;;;;;;;;;;5111950;28;20051;-64
2022/04/23 03:03:37;;;;;;;15.25;11.30;;;;;;;;;;5085500;28;20036;-64
2022/04/23 03:06:05;;;;;;;19.23;12.77;;;;;;;;;;5086638;28;20048;-64
2022/04/23 03:08:31;;;;;;;18.63;11.88;;;;;;;;;;5086350;28;20044;-64
2022/04/23 03:10:56;;;;;;;16.55;11.63;;;;;;;;;;5089583;28;20034;-64
2022/04/23 03:13:24;;;;;;;16.90;11.88;;;;;;;;;;5099169;28;20040;-64
2022/04/23 03:15:49;;;;;;;17.40;12.10;;;;;;;;;;5095241;28;20040;-64
2022/04/23 03:18:16;;;;;;;14.98;10.50;;;;;;;;;;5091014;28;20040;-64
2022/04/23 03:20:42;;;;;;;15.57;11.43;;;;;;;;;;5095062;28;20081;-64
2022/04/23 03:23:08;;;;;;;18.42;12.88;;;;;;;;;;5091739;28;20040;-64
2022/04/23 03:25:34;;;;;;;16.40;11.68;;;;;;;;;;5094980;28;20035;-64
2022/04/23 03:28:01;;;;;;;14.77;11.50;;;;;;;;;;5100051;28;20439;-64
2022/04/23 03:30:27;;;;;;;16.30;11.95;;;;;;;;;;5084197;28;20043;-64
2022/04/23 03:32:53;;;;;;;18.60;12.55;;;;;;;;;;5090863;28;20028;-64
2022/04/23 03:35:19;;;;;;;15.07;11.55;;;;;;;;;;5088220;28;20040;-64
2022/04/23 03:37:46;;;;;;;16.88;11.70;;;;;;;;;;5091437;28;20036;-64
2022/04/23 03:40:13;;;;;;;16.65;11.45;;;;;;;;;;5090434;28;20119;-64
2022/04/23 03:42:40;;;;;;;19.52;12.38;;;;;;;;;;5100617;28;20064;-64
2022/04/23 03:45:08;;;;;;;17.58;12.63;;;;;;;;;;5085723;28;20075;-64
2022/04/23 03:47:34;;;;;;;16.88;11.80;;;;;;;;;;5094106;28;20048;-64
2022/04/23 03:50:04;;;;;;;18.55;11.75;;;;;;;;;;5093188;28;20040;-64
2022/04/23 03:52:30;;;;;;;16.60;11.90;;;;;;;;;;5089210;28;20093;-64
2022/04/23 03:54:56;;;;;;;15.32;12.25;;;;;;;;;;5100972;28;20115;-64
2022/04/23 03:57:22;;;;;;;17.65;12.40;;;;;;;;;;5101865;28;20044;-64
2022/04/23 03:59:48;;;;;;;15.07;11.90;;;;;;;;;;5092077;28;20390;-64
2022/04/23 04:02:14;;;;;;;16.52;12.15;;;;;;;;;;5091655;28;20142;-64
2022/04/23 04:04:42;;;;;;;16.50;11.80;;;;;;;;;;5086807;28;20037;-64
2022/04/23 04:07:08;;;;;;;15.85;11.65;;;;;;;;;;5081862;28;20040;-64
2022/04/23 04:09:34;;;;;;;19.10;11.65;;;;;;;;;;5090849;28;20036;-64
2022/04/23 04:12:02;;;;;;;14.15;10.63;;;;;;;;;;5091983;28;20047;-64
2022/04/23 04:14:30;;;;;;;15.88;10.95;;;;;;;;;;5086400;28;20127;-64
2022/04/23 04:16:56;;;;;;;14.68;10.45;;;;;;;;;;5082524;28;20119;-64
2022/04/23 04:19:22;;;;;;;13.90;10.18;;;;;;;;;;5085670;28;20508;-63
2022/04/23 04:21:48;;;;;;;13.20;10.60;;;;;;;;;;5066458;28;20036;-63
2022/04/23 04:24:14;;;;;;;14.52;11.02;;;;;;;;;;5082904;28;20040;-64
2022/04/23 04:26:41;;;;;;;12.88;10.63;;;;;;;;;;5093033;28;20139;-64
2022/04/23 04:29:07;;;;;;;13.18;10.13;;;;;;;;;;5087910;28;20032;-64
2022/04/23 04:31:49;;;;;;;12.85;9.95;;;;;;;;;;5090503;28;20032;-64
2022/04/23 04:34:14;;;;;;;;;;;;;;;;;;5094066;28;20052;-64
2022/04/23 04:36:40;;;;;;;12.25;9.02;;;;;;;;;;5101088;28;19981;-64
2022/04/23 04:39:06;;;;;;;12.88;9.57;;;;;;;;;;5107441;28;20032;-64
2022/04/23 04:41:35;;;;;;;11.90;9.45;;;;;;;;;;5100405;28;20123;-64
2022/04/23 04:44:01;;;;;;;13.05;10.23;;;;;;;;;;5094493;28;20032;-64
2022/04/23 04:46:27;;;;;;;11.07;9.20;;;;;;;;;;5092007;28;20081;-64
2022/04/23 04:48:53;;;;;;;12.60;9.20;;;;;;;;;;5084396;28;20543;-64
2022/04/23 04:51:19;;;;;;;12.43;9.75;;;;;;;;;;5090605;28;20043;-64
2022/04/23 04:53:45;;;;;;;11.40;9.27;;;;;;;;;;5097385;28;20043;-64
2022/04/23 04:56:11;;;;;;;11.73;8.52;;;;;;;;;;5092579;28;20055;-64
2022/04/23 04:58:37;;;;;;;11.38;9.18;;;;;;;;;;5084514;28;20050;-64
2022/04/23 05:01:04;;;;;;;11.63;8.68;;;;;;;;;;5087813;28;20067;-64
2022/04/23 05:03:30;;;;;;;12.00;8.73;;;;;;;;;;5092293;28;20039;-64
2022/04/23 05:05:56;;;;;;;11.25;8.48;;;;;;;;;;5088777;28;20036;-64
2022/04/23 05:08:22;;;;;;;13.95;8.50;;;;;;;;;;5092518;28;20520;-64
2022/04/23 05:10:48;;;;;;;11.15;7.65;;;;;;;;;;5088826;28;20039;-64
2022/04/23 05:13:14;;;;;;;11.10;8.10;;;;;;;;;;5087761;28;20044;-64
2022/04/23 05:15:40;;;;;;;9.18;7.65;;;;;;;;;;5087657;28;20036;-64
2022/04/23 05:18:06;;;;;;;10.02;7.97;;;;;;;;;;5085393;28;20504;-64
2022/04/23 05:20:32;;;;;;;9.60;7.47;;;;;;;;;;5084905;28;22111;-64
2022/04/23 05:22:58;;;;;;;11.45;7.78;;;;;;;;;;5083325;28;20067;-64
2022/04/23 05:25:24;;;;;;;9.73;8.07;;;;;;;;;;5079695;28;20448;-64
2022/04/23 05:27:50;;;;;;;9.55;7.90;;;;;;;;;;5085712;28;20043;-64
2022/04/23 05:30:16;;;;;;;11.63;8.85;;;;;;;;;;5082410;28;20036;-64
2022/04/23 05:32:42;;;;;;;13.15;8.70;;;;;;;;;;5088131;28;20036;-64
2022/04/23 05:35:08;;;;;;;11.00;8.95;;;;;;;;;;5090326;28;20058;-64
2022/04/23 05:37:34;;;;;;;11.45;9.10;;;;;;;;;;5074597;28;20090;-64
2022/04/23 05:40:01;;;;;;;12.65;9.27;;;;;;;;;;5086559;28;20040;-64
2022/04/23 05:42:27;;;;;;;10.10;8.13;;;;;;;;;;5079708;28;20038;-64
2022/04/23 05:44:53;;;;;;;10.73;8.15;;;;;;;;;;5081797;28;20400;-64
2022/04/23 05:47:19;;;;;;;11.57;9.20;;;;;;;;;;5077459;28;20037;-64
2022/04/23 05:49:44;;;;;;;12.32;9.10;;;;;;;;;;5089785;28;20127;-64
2022/04/23 05:52:10;;;;;;;12.48;9.10;;;;;;;;;;5085741;28;20072;-64
2022/04/23 05:54:36;;;;;;;10.93;8.30;;;;;;;;;;5080113;28;20637;-63
2022/04/23 05:57:03;;;;;;;11.10;8.30;;;;;;;;;;5084296;28;20041;-64
2022/04/23 05:59:29;;;;;;;11.73;8.60;;;;;;;;;;5081809;28;20074;-64
2022/04/23 06:01:55;;;;;;;12.18;9.30;;;;;;;;;;5091596;28;20089;-64
2022/04/23 06:04:23;;;;;;;13.35;8.52;;;;;;;;;;5083451;28;20451;-64
2022/04/23 06:06:49;;;;;;;11.70;8.60;;;;;;;;;;5083254;28;20040;-64
2022/04/23 06:09:15;;;;;;;14.32;8.95;;;;;;;;;;5080079;28;20044;-64
2022/04/23 06:11:41;;;;;;;13.05;9.85;;;;;;;;;;5085882;28;20123;-64
2022/04/23 06:14:07;;;;;;;13.25;10.15;;;;;;;;;;5079472;28;20119;-64
2022/04/23 06:16:34;;;;;;;12.48;9.27;;;;;;;;;;5082083;28;20036;-64
2022/04/23 06:19:00;;;;;;;13.60;8.63;;;;;;;;;;5082321;28;20040;-64
2022/04/23 06:21:26;;;;;;;12.43;9.63;;;;;;;;;;5085771;28;20115;-64
2022/04/23 06:23:52;;;;;;;12.15;8.65;;;;;;;;;;5079269;28;20032;-64
2022/04/23 06:26:18;;;;;;;14.32;10.07;;;;;;;;;;5079635;28;20050;-64
2022/04/23 06:28:44;;;;;;;15.68;10.52;;;;;;;;;;5079183;28;20398;-63
2022/04/23 06:31:10;;;;;;;13.50;10.48;;;;;;;;;;5085863;28;20158;-63
2022/04/23 06:33:36;;;;;;;13.68;10.80;;;;;;;;;;5077633;28;20083;-63
2022/04/23 06:36:02;;;;;;;16.15;10.18;;;;;;;;;;5073431;28;20491;-64
2022/04/23 06:38:28;;;;;;;15.18;10.35;;;;;;;;;;5083295;28;20032;-64
2022/04/23 06:40:54;;;;;;;12.40;9.63;;;;;;;;;;5106076;22;20043;-61
2022/04/23 06:43:20;;;;;;;14.60;9.27;;;;;;;;;;5081631;28;20104;-60
2022/04/23 06:45:46;;;;;;;15.05;11.07;;;;;;;;;;5101150;28;20056;-60
2022/04/23 06:48:12;;;;;;;12.52;8.60;;;;;;;;;;5100056;28;20265;-60
2022/04/23 06:50:38;;;;;;;13.27;10.07;;;;;;;;;;5103033;28;20046;-61
2022/04/23 06:53:05;;;;;;;13.63;10.13;;;;;;;;;;5081610;28;20040;-61
2022/04/23 06:55:31;;;;;;;14.27;9.20;;;;;;;;;;5078042;28;20045;-60
2022/04/23 06:57:57;;;;;;;11.65;8.35;;;;;;;;;;5054996;28;20051;-61
2022/04/23 07:00:23;;;;;;;17.58;11.75;;;;;;;;;;5086831;28;20036;-61
2022/04/23 07:02:50;;;;;;;13.70;10.63;;;;;;;;;;5065150;28;20124;-61
2022/04/23 07:05:16;;;;;;;17.40;11.20;;;;;;;;;;5087928;28;20048;-61
2022/04/23 07:07:42;;;;;;;13.90;9.77;;;;;;;;;;5071614;28;20036;-61
2022/04/23 07:10:08;;;;;;;11.88;9.63;;;;;;;;;;5056641;28;20123;-61
2022/04/23 07:12:34;;;;;;;15.35;11.52;;;;;;;;;;5083654;28;20121;-62
2022/04/23 07:15:01;;;;;;;18.10;11.27;;;;;;;;;;5082574;28;20498;-62
2022/04/23 07:17:27;;;;;;;19.00;11.57;;;;;;;;;;5080209;28;20402;-62
2022/04/23 07:19:56;;;;;;;17.63;11.43;;;;;;;;;;5082189;28;20482;-61
2022/04/23 07:22:22;;;;;;;14.98;10.55;;;;;;;;;;5077317;28;20041;-61
2022/04/23 07:24:49;;;;;;;15.73;10.55;;;;;;;;;;5077271;28;20045;-62
2022/04/23 07:27:15;;;;;;;16.70;11.52;;;;;;;;;;5089913;28;20044;-61
2022/04/23 07:29:41;;;;;;;16.27;9.00;;;;;;;;;;5068192;28;20089;-62
2022/04/23 07:32:07;;;;;;;14.95;10.55;;;;;;;;;;5093550;28;20032;-61
2022/04/23 07:37:34;;;;;;;15.48;10.38;;;;;;;;;;5083547;28;20063;-61
2022/04/23 07:40:00;;;;;;;18.33;11.07;;;;;;;;;;5093734;28;20055;-61
2022/04/23 07:42:27;;;;;;;17.70;10.82;;;;;;;;;;5068529;28;20051;-61
2022/04/23 07:44:53;;;;;;;17.02;9.85;;;;;;;;;;5094046;28;20504;-61
2022/04/23 07:47:19;;;;;;;17.75;10.45;;;;;;;;;;5091553;28;20150;-62
2022/04/23 07:49:46;;;;;;;15.20;7.95;;;;;;;;;;5081685;28;20090;-61
2022/04/23 07:52:12;;;;;;;13.30;8.63;;;;;;;;;;5084290;28;20052;-62
2022/04/23 07:54:38;;;;;;;16.45;9.70;;;;;;;;;;5094706;28;20397;-61
2022/04/23 07:57:07;;;;;;;14.32;8.35;;;;;;;;;;5094340;28;20036;-61
2022/04/23 07:59:33;;;;;;;14.50;10.20;;;;;;;;;;5092068;28;20119;-61
2022/04/23 08:02:01;;;;;;;11.63;8.85;;;;;;;;;;5056295;28;20363;-62
2022/04/23 08:04:27;;;;;;;20.05;9.38;;;;;;;;;;5083842;28;20039;-61
2022/04/23 08:06:53;;;;;;;15.18;10.65;;;;;;;;;;5089486;28;20501;-61
2022/04/23 08:09:19;;;;;;;13.43;10.05;;;;;;;;;;5094314;28;20036;-61
2022/04/23 08:11:45;;;;;;;11.50;7.13;;;;;;;;;;5068577;28;20066;-61
2022/04/23 08:14:11;;;;;;;15.43;8.90;;;;;;;;;;5069127;28;20048;-61
2022/04/23 08:16:37;;;;;;;11.27;7.30;;;;;;;;;;5089406;28;20718;-61
2022/04/23 08:19:03;;;;;;;13.02;9.55;;;;;;;;;;5081110;28;20120;-60
2022/04/23 08:21:29;;;;;;;14.70;9.45;;;;;;;;;;5069804;28;20041;-61
2022/04/23 08:23:55;;;;;;;17.77;9.90;;;;;;;;;;5073914;28;20089;-61
2022/04/23 08:26:21;;;;;;;14.10;9.50;;;;;;;;;;5078023;28;20115;-60
2022/04/23 08:31:32;;;;;;;14.88;10.07;;;;;;;;;;5084093;28;20039;-60
2022/04/23 08:33:58;;;;;;;13.23;8.80;;;;;;;;;;5059891;28;20048;-61
2022/04/23 08:36:26;;;;;;;14.68;10.00;;;;;;;;;;5081346;28;20041;-60
2022/04/23 08:38:55;;;;;;;12.43;9.48;;;;;;;;;;5091612;28;20040;-60
2022/04/23 08:41:27;;;;;;;11.70;9.25;;;;;;;;;;5090042;28;20093;-61
2022/04/23 08:43:53;;;;;;;20.00;11.55;;;;;;;;;;5089330;28;20111;-60
2022/04/23 08:46:20;;;;;;;12.52;9.20;;;;;;;;;;5092689;28;20044;-60
2022/04/23 08:48:50;;;;;;;13.88;10.00;;;;;;;;;;5078294;28;20048;-61
2022/04/23 08:51:20;;;;;;;11.10;8.70;;;;;;;;;;5073439;28;20046;-61
2022/04/23 08:53:47;;;;;;;12.73;8.38;;;;;;;;;;5073321;28;20551;-61
2022/04/23 08:56:13;;;;;;;11.98;8.70;;;;;;;;;;5076189;28;20086;-61
2022/04/23 08:58:39;;;;;;;20.05;8.50;;;;;;;;;;5091588;28;20032;-60
2022/04/23 09:01:06;;;;;;;14.15;10.35;;;;;;;;;;5076318;28;20090;-61
2022/04/23 09:03:32;;;;;;;12.27;9.00;;;;;;;;;;5063206;28;20040;-61
2022/04/23 09:05:58;;;;;;;13.40;10.50;;;;;;;;;;5093276;28;20486;-60
2022/04/23 09:08:26;;;;;;;15.35;10.43;;;;;;;;;;5088037;28;20043;-60
2022/04/23 09:10:54;;;;;;;18.50;11.57;;;;;;;;;;5071227;28;20044;-60
2022/04/23 09:13:32;;;;;;;15.23;10.93;;;;;;;;;;5091993;28;20044;-61
2022/04/23 09:24:18;;;;;;;14.02;11.00;;;;;;;;;;5086017;28;20041;-61
2022/04/23 09:27:02;;;;;;;18.05;9.75;;;;;;;;;;5089513;28;20051;-61
2022/04/23 09:29:29;;;;;;;14.30;10.23;;;;;;;;;;5075758;28;20040;-61
2022/04/23 09:32:08;;;;;;;13.85;10.63;;;;;;;;;;5092640;28;20524;-61
2022/04/23 09:34:34;;;;;;;18.08;10.45;;;;;;;;;;5077053;28;20453;-61
2022/04/23 09:37:00;;;;;;;16.05;11.15;;;;;;;;;;5080439;28;20044;-61
2022/04/23 09:39:38;;;;;;;14.95;10.55;;;;;;;;;;5074452;28;20033;-61
2022/04/23 09:42:19;;;;;;;16.52;11.88;;;;;;;;;;5072916;28;20408;-61
2022/04/23 09:44:46;;;;;;;13.77;10.77;;;;;;;;;;5084312;28;20032;-61
2022/04/23 09:47:29;;;;;;;14.10;11.05;;;;;;;;;;5072193;28;20036;-61
2022/04/23 09:49:55;;;;;;;15.20;11.07;;;;;;;;;;5071966;28;20047;-61
2022/04/23 09:52:28;;;;;;;14.07;10.80;;;;;;;;;;5077318;28;20052;-61
2022/04/23 09:54:54;;;;;;;13.73;10.63;;;;;;;;;;5083216;28;20059;-61
2022/04/23 09:57:21;;;;;;;12.20;10.05;;;;;;;;;;5079201;28;20071;-61
2022/04/23 09:59:47;;;;;;;15.90;10.48;;;;;;;;;;5071276;28;20044;-61
2022/04/23 10:02:15;;;;;;;12.40;9.45;;;;;;;;;;5080372;28;20033;-61
2022/04/23 10:04:41;;;;;;;14.38;10.68;;;;;;;;;;5071656;28;20509;-61
2022/04/23 10:07:08;;;;;;;14.82;10.38;;;;;;;;;;5072145;28;20079;-62
2022/04/23 10:09:39;;;;;;;13.80;10.80;;;;;;;;;;5079698;28;20512;-62
2022/04/23 10:12:06;;;;;;;18.45;10.77;;;;;;;;;;5079804;28;20036;-61
2022/04/23 10:14:34;;;;;;;16.20;11.63;;;;;;;;;;5061500;28;20044;-61
2022/04/23 10:17:02;;;;;;;17.42;11.10;;;;;;;;;;5080761;28;20555;-62
2022/04/23 10:19:29;;;;;;;15.95;10.10;;;;;;;;;;5071522;28;20045;-61
2022/04/23 10:22:03;;;;;;;15.05;11.40;;;;;;;;;;5078776;28;20035;-61
2022/04/23 10:24:34;;;;;;;15.07;10.55;;;;;;;;;;5080247;28;20062;-61
2022/04/23 10:27:07;;;;;;;16.73;9.00;;;;;;;;;;5071286;28;20055;-61
2022/04/23 10:29:33;;;;;;;15.82;11.10;;;;;;;;;;5080513;28;20397;-62
2022/04/23 10:32:11;;;;;;;12.30;8.80;;;;;;;;;;5075119;28;20117;-61
2022/04/23 10:34:38;;;;;;;13.23;8.73;;;;;;;;;;5075682;28;20040;-62
2022/04/23 10:37:23;;;;;;;18.08;9.82;;;;;;;;;;5078120;28;20529;-61
2022/04/23 10:39:51;;;;;;;15.05;10.88;;;;;;;;;;5086360;28;20107;-61
2022/04/23 10:42:22;;;;;;;13.70;10.75;;;;;;;;;;5088681;28;20052;-61
2022/04/23 10:44:49;;;;;;;13.73;10.93;;;;;;;;;;5071333;28;20079;-61
2022/04/23 10:47:29;;;;;;;13.63;9.23;;;;;;;;;;5071338;28;20076;-62
2022/04/23 10:52:43;;;;;;;13.07;9.57;;;;;;;;;;5084772;28;20465;-61
2022/04/23 10:55:10;;;;;;;13.57;10.80;;;;;;;;;;5084680;28;20096;-62
2022/04/23 10:57:38;;;;;;;12.77;8.75;;;;;;;;;;5085819;28;20043;-61
2022/04/23 11:00:11;;;;;;;13.82;10.65;;;;;;;;;;5084175;28;20498;-61
2022/04/23 11:02:39;;;;;;;12.55;9.95;;;;;;;;;;5088207;28;20673;-61
2022/04/23 11:13:48;;;;;;;13.57;10.38;;;;;;;;;;5082279;28;20469;-61
2022/04/23 11:16:18;;;;;;;14.15;9.95;;;;;;;;;;5079010;28;20044;-61
2022/04/23 11:18:45;;;;;;;13.33;9.60;;;;;;;;;;5079533;28;20029;-61
2022/04/23 11:21:11;;;;;;;14.30;10.13;;;;;;;;;;5089832;28;20036;-61
2022/04/23 11:23:42;;;;;;;14.18;10.02;;;;;;;;;;5081956;28;20029;-61
2022/04/23 11:26:11;;;;;;;10.38;9.10;;;;;;;;;;5075830;28;20044;-61
2022/04/23 11:28:37;;;;;;;14.23;9.35;;;;;;;;;;5079551;28;20116;-61
2022/04/23 11:31:10;;;;;;;14.00;10.60;;;;;;;;;;5075055;28;20047;-61
2022/04/23 11:33:36;;;;;;;11.68;9.90;;;;;;;;;;5077008;28;20040;-62
2022/04/23 11:36:04;;;;;;;13.00;10.57;;;;;;;;;;5082989;28;20432;-61
2022/04/23 11:38:30;;;;;;;13.05;9.82;;;;;;;;;;5070889;28;20043;-62
2022/04/23 11:40:56;;;;;;;18.23;11.00;;;;;;;;;;5084844;28;20024;-61
2022/04/23 11:43:32;;;;;;;13.30;9.75;;;;;;;;;;5076770;28;20111;-61
2022/04/23 11:46:08;;;;;;;14.55;10.45;;;;;;;;;;5074253;28;20094;-61
2022/04/23 11:48:40;;;;;;;14.63;10.32;;;;;;;;;;5078518;28;20070;-61
2022/04/23 11:51:06;;;;;;;12.43;9.90;;;;;;;;;;5085667;28;20040;-61
2022/04/23 11:53:52;;;;;;;10.10;8.35;;;;;;;;;;5093474;28;20036;-60
2022/04/23 11:56:25;;;;;;;12.15;9.65;;;;;;;;;;5084074;28;20055;-61
2022/04/23 11:58:52;;;;;;;12.05;9.02;;;;;;;;;;5087090;28;20460;-61
2022/04/23 12:01:19;;;;;;;12.07;8.93;;;;;;;;;;5073751;28;20116;-61
2022/04/23 12:03:49;;;;;;;17.05;9.07;;;;;;;;;;5074690;28;20043;-61
2022/04/23 12:06:15;;;;;;;10.15;8.32;;;;;;;;;;5075945;28;20090;-61
2022/04/23 12:08:41;;;;;;;14.93;9.40;;;;;;;;;;5078585;28;20037;-61
2022/04/23 12:11:28;;;;;;;10.05;8.43;;;;;;;;;;5067265;28;20040;-61
2022/04/23 12:13:54;;;;;;;11.80;8.85;;;;;;;;;;5086104;28;20089;-61
2022/04/23 12:16:31;;;;;;;11.07;8.38;;;;;;;;;;5083525;28;20564;-61
2022/04/23 12:19:01;;;;;;;9.82;7.03;;;;;;;;;;5087596;28;20046;-61
2022/04/23 12:21:28;;;;;;;10.25;6.95;;;;;;;;;;5056566;28;20040;-61
2022/04/23 12:23:53;;;;;;;10.40;7.82;;;;;;;;;;5081015;28;20032;-61
2022/04/23 12:26:21;;;;;;;11.13;8.35;;;;;;;;;;5074862;28;20158;-61
2022/04/23 12:42:52;;;;;;;9.00;5.20;;;;;;;;;;5118769;22;20036;-63
2022/04/23 12:45:21;;;;;;;9.77;5.90;;;;;;;;;;5102705;28;20123;-64
2022/04/23 12:47:47;;;;;;;8.38;6.18;;;;;;;;;;5098809;28;20092;-63
2022/04/23 12:50:25;;;;;;;10.70;6.53;;;;;;;;;;5106399;27;20447;-63
2022/04/23 12:52:52;;;;;;;7.22;6.18;;;;;;;;;;5095268;27;20036;-63
2022/04/23 12:55:18;;;;;;;10.90;7.20;;;;;;;;;;5073856;28;20081;-63
2022/04/23 12:57:44;;;;;;;10.30;6.53;;;;;;;;;;5094308;28;20565;-63
2022/04/23 13:00:11;;;;;;;12.63;6.05;;;;;;;;;;5095046;28;20418;-64
2022/04/23 13:02:38;;;;;;;11.77;5.65;;;;;;;;;;5082881;28;20114;-63
2022/04/23 13:05:05;;;;;;;9.35;5.93;;;;;;;;;;5089874;28;20436;-63
2022/04/23 13:10:16;;;;;;;9.55;6.28;;;;;;;;;;5090592;28;20051;-63
2022/04/23 13:12:42;;;;;;;7.75;5.95;;;;;;;;;;5091542;28;20035;-63
2022/04/23 13:15:09;;;;;;;9.55;6.78;;;;;;;;;;5090065;28;20035;-63
2022/04/23 13:17:38;;;;;;;9.23;6.60;;;;;;;;;;5083320;28;20040;-63
2022/04/23 13:20:04;;;;;;;9.48;6.60;;;;;;;;;;5092651;28;20047;-63
2022/04/23 13:22:32;;;;;;;8.02;6.10;;;;;;;;;;5092231;28;20035;-63
2022/04/23 13:24:58;;;;;;;6.93;6.13;;;;;;;;;;5092770;28;20044;-63
2022/04/23 13:27:24;;;;;;;10.15;6.18;;;;;;;;;;5091432;28;20055;-63
2022/04/23 13:29:53;;;;;;;9.30;6.35;;;;;;;;;;5092237;28;20111;-63
2022/04/23 13:32:19;;;;;;;7.32;5.30;;;;;;;;;;5092297;28;20127;-64
2022/04/23 13:34:45;;;;;;;7.00;5.25;;;;;;;;;;5092692;28;20040;-63
2022/04/23 13:37:11;;;;;;;17.13;6.45;;;;;;;;;;5090899;28;20089;-63
2022/04/23 13:39:37;;;;;;;9.93;5.70;;;;;;;;;;5092343;28;20040;-63
2022/04/23 13:42:04;;;;;;;7.05;5.65;;;;;;;;;;5095073;28;20094;-63
2022/04/23 13:44:30;;;;;;;9.70;6.93;;;;;;;;;;5090384;28;20032;-63
2022/04/23 13:46:56;;;;;;;12.57;6.65;;;;;;;;;;5091711;28;20080;-63
2022/04/23 13:49:25;;;;;;;8.50;7.18;;;;;;;;;;5091869;28;20047;-63
2022/04/23 13:51:51;;;;;;;10.68;7.03;;;;;;;;;;5091543;28;20040;-64
2022/04/23 13:54:18;;;;;;;9.45;6.82;;;;;;;;;;5091694;28;20044;-63
2022/04/23 13:56:44;;;;;;;9.25;6.88;;;;;;;;;;5089138;28;20497;-63
2022/04/23 13:59:10;;;;;;;11.65;7.40;;;;;;;;;;5081181;28;20040;-63
2022/04/23 14:01:39;;;;;;;9.75;6.60;;;;;;;;;;5091126;28;20545;-63
2022/04/23 14:12:40;;;;;;;10.35;6.47;;;;;;;;;;5027739;28;20045;-63
2022/04/23 14:15:06;;;;;;;7.65;6.20;;;;;;;;;;5032082;28;20037;-63
2022/04/23 14:17:33;;;;;;;8.20;6.28;;;;;;;;;;5055786;28;20590;-63
2022/04/23 14:19:59;;;;;;;7.05;5.75;;;;;;;;;;5091716;28;20032;-63
2022/04/23 14:22:25;;;;;;;10.75;6.05;;;;;;;;;;5083347;28;20063;-63
2022/04/23 14:24:51;;;;;;;8.07;5.95;;;;;;;;;;5093476;28;20052;-63
2022/04/23 14:27:17;;;;;;;7.70;5.20;;;;;;;;;;5091802;28;20047;-63
2022/04/23 14:29:43;;;;;;;8.23;4.80;;;;;;;;;;5088687;28;20094;-63
2022/04/23 14:32:09;;;;;;;8.18;5.70;;;;;;;;;;5086125;28;20039;-63
2022/04/23 14:34:35;;;;;;;12.45;5.57;;;;;;;;;;5090831;28;20497;-63
2022/04/23 14:37:02;;;;;;;5.82;5.22;;;;;;;;;;5085677;28;20078;-63
2022/04/23 14:39:29;;;;;;;6.05;5.40;;;;;;;;;;5071179;28;20494;-63
2022/04/23 14:41:55;;;;;;;6.47;5.32;;;;;;;;;;5081205;28;20036;-63
2022/04/23 14:44:21;;;;;;;7.70;5.30;;;;;;;;;;5079051;28;20044;-63
2022/04/23 14:46:48;;;;;;;5.68;4.88;;;;;;;;;;5089959;28;20485;-63
2022/04/23 14:49:15;;;;;;;6.03;5.43;;;;;;;;;;5087852;28;20040;-63
2022/04/23 14:54:26;;;;;;;7.70;5.05;;;;;;;;;;5081469;28;20067;-63
2022/04/23 14:56:53;;;;;;;6.78;5.22;;;;;;;;;;5081138;28;20086;-63
2022/04/23 14:59:19;;;;;;;11.18;5.30;;;;;;;;;;5087241;28;20044;-63
2022/04/23 15:01:46;;;;;;;6.35;4.57;;;;;;;;;;5088135;28;20032;-63
2022/04/23 15:04:14;;;;;;;6.55;4.45;;;;;;;;;;5083430;28;20036;-63
2022/04/23 15:06:40;;;;;;;7.13;4.57;;;;;;;;;;5083520;28;20044;-63
2022/04/23 15:09:06;;;;;;;5.80;4.15;;;;;;;;;;5087100;28;20040;-62
2022/04/23 15:11:32;;;;;;;5.30;4.80;;;;;;;;;;5085730;28;20123;-62
2022/04/23 15:13:58;;;;;;;7.25;5.10;;;;;;;;;;5086706;28;20130;-62
2022/04/23 15:16:25;;;;;;;6.22;4.68;;;;;;;;;;5081781;28;20128;-62
2022/04/23 15:18:51;;;;;;;8.93;5.18;;;;;;;;;;5093636;28;20892;-62
2022/04/23 15:21:17;;;;;;;8.68;5.05;;;;;;;;;;5089156;28;20432;-62
2022/04/23 15:23:43;;;;;;;5.68;4.38;;;;;;;;;;5087809;28;20036;-62